createdAt,value
2022-12-31T00:02:52.622Z,-2.49
2022-12-31T00:05:54.588Z,-2.52
2022-12-31T00:08:58.650Z,-2.57
2022-12-31T00:12:00.274Z,-2.64
2022-12-31T00:15:01.977Z,-2.70
2022-12-31T00:18:03.570Z,-2.75
2022-12-31T00:21:10.083Z,-2.77
2022-12-31T00:24:11.950Z,-2.76
2022-12-31T00:27:13.452Z,-2.79
2022-12-31T00:30:15.668Z,-2.86
2022-12-31T00:33:17.329Z,-2.94
2022-12-31T00:36:19.011Z,-3.04
2022-12-31T00:39:20.795Z,-3.05
2022-12-31T00:42:22.472Z,-3.03
2022-12-31T00:45:23.991Z,-2.98
2022-12-31T00:48:26.126Z,-2.92
2022-12-31T00:51:27.990Z,-2.86
2022-12-31T00:54:29.762Z,-2.86
2022-12-31T00:57:31.413Z,-2.79
2022-12-31T01:00:33.033Z,-2.67
2022-12-31T01:03:34.865Z,-2.61
2022-12-31T01:06:37.075Z,-2.48
2022-12-31T01:09:38.941Z,-2.30
2022-12-31T01:12:40.548Z,-2.19
2022-12-31T01:15:42.310Z,-2.16
2022-12-31T01:18:44.370Z,-2.14
2022-12-31T01:21:48.888Z,-2.13
2022-12-31T01:24:50.788Z,-2.04
2022-12-31T01:27:52.795Z,-1.89
2022-12-31T01:30:55.169Z,-1.76
2022-12-31T01:33:58.043Z,-1.71
2022-12-31T01:36:59.737Z,-1.70
2022-12-31T01:40:01.388Z,-1.65
2022-12-31T01:43:03.445Z,-1.49
2022-12-31T01:46:05.752Z,-1.36
2022-12-31T01:49:37.110Z,-1.12
2022-12-31T01:52:41.874Z,-0.98
2022-12-31T01:55:46.601Z,-0.78
2022-12-31T01:58:50.146Z,-0.61
2022-12-31T02:01:51.974Z,-0.55
2022-12-31T02:04:55.810Z,-0.48
2022-12-31T02:07:57.637Z,-0.46
2022-12-31T02:10:59.306Z,-0.42
2022-12-31T02:14:10.366Z,-0.33
2022-12-31T02:17:31.647Z,-0.22
2022-12-31T02:20:51.138Z,-0.19
2022-12-31T02:24:26.857Z,-0.07
2022-12-31T02:27:51.834Z,0.09
2022-12-31T02:31:01.968Z,0.23
2022-12-31T02:34:41.731Z,0.27
2022-12-31T02:37:45.778Z,0.24
2022-12-31T02:40:47.470Z,0.17
2022-12-31T02:43:49.105Z,0.18
2022-12-31T02:46:59.979Z,0.19
2022-12-31T02:50:20.630Z,0.08
2022-12-31T02:53:35.055Z,0.02
2022-12-31T02:56:51.521Z,0.02
2022-12-31T02:59:55.324Z,-0.22
2022-12-31T03:02:58.168Z,-0.37
2022-12-31T03:06:02.258Z,-0.33
2022-12-31T03:09:03.907Z,-0.33
2022-12-31T03:12:08.141Z,-0.28
2022-12-31T03:15:11.243Z,-0.32
2022-12-31T03:18:15.721Z,-0.35
2022-12-31T03:21:17.263Z,-0.37
2022-12-31T03:24:18.902Z,-0.39
2022-12-31T03:27:20.473Z,-0.46
2022-12-31T03:30:23.424Z,-0.58
2022-12-31T03:33:26.054Z,-0.68
2022-12-31T03:36:27.731Z,-0.70
2022-12-31T03:39:32.483Z,-0.68
2022-12-31T03:42:34.032Z,-0.69
2022-12-31T03:45:36.390Z,-0.68
2022-12-31T03:48:38.103Z,-0.66
2022-12-31T03:51:39.698Z,-0.64
2022-12-31T03:54:42.157Z,-0.61
2022-12-31T03:57:43.791Z,-0.57
2022-12-31T04:00:45.461Z,-0.54
2022-12-31T04:03:47.061Z,-0.53
2022-12-31T04:06:48.757Z,-0.54
2022-12-31T04:09:50.407Z,-0.55
2022-12-31T04:12:52.079Z,-0.55
2022-12-31T04:15:53.767Z,-0.55
2022-12-31T04:18:55.374Z,-0.56
2022-12-31T04:21:57.043Z,-0.59
2022-12-31T04:24:58.673Z,-0.62
2022-12-31T04:28:00.343Z,-0.67
2022-12-31T04:31:02.109Z,-0.76
2022-12-31T04:34:03.992Z,-0.81
2022-12-31T04:37:05.588Z,-0.79
2022-12-31T04:40:07.968Z,-0.80
2022-12-31T04:43:09.600Z,-0.82
2022-12-31T04:46:11.658Z,-0.84
2022-12-31T04:49:13.407Z,-0.89
2022-12-31T04:52:14.981Z,-0.94
2022-12-31T04:55:16.592Z,-0.97
2022-12-31T04:58:18.400Z,-1.03
2022-12-31T05:01:20.238Z,-1.07
2022-12-31T05:04:22.069Z,-1.11
2022-12-31T05:07:23.691Z,-1.14
2022-12-31T05:10:25.415Z,-1.18
2022-12-31T05:13:32.877Z,-1.21
2022-12-31T05:16:35.401Z,-1.18
2022-12-31T05:19:36.984Z,-1.11
2022-12-31T05:22:38.679Z,-1.05
2022-12-31T05:25:41.756Z,-1.00
2022-12-31T05:28:43.628Z,-0.94
2022-12-31T05:31:45.183Z,-0.91
2022-12-31T05:34:46.958Z,-0.89
2022-12-31T05:37:48.698Z,-0.89
2022-12-31T05:40:58.961Z,-0.89
2022-12-31T05:44:00.545Z,-0.91
2022-12-31T05:47:02.127Z,-0.94
2022-12-31T05:50:04.036Z,-0.99
2022-12-31T05:53:05.541Z,-1.00
2022-12-31T05:56:07.178Z,-0.97
2022-12-31T05:59:08.829Z,-0.95
2022-12-31T06:02:10.490Z,-0.94
2022-12-31T06:05:12.381Z,-0.94
2022-12-31T06:08:13.977Z,-0.93
2022-12-31T06:11:15.647Z,-0.94
2022-12-31T06:14:17.467Z,-0.94
2022-12-31T06:17:18.966Z,-0.92
2022-12-31T06:20:20.579Z,-0.93
2022-12-31T06:23:22.259Z,-0.96
2022-12-31T06:26:23.928Z,-0.99
2022-12-31T06:29:25.575Z,-1.01
2022-12-31T06:32:27.290Z,-1.01
2022-12-31T06:35:28.921Z,-0.99
2022-12-31T06:38:32.532Z,-0.96
2022-12-31T06:41:34.194Z,-0.94
2022-12-31T06:44:35.739Z,-0.95
2022-12-31T06:47:37.252Z,-0.93
2022-12-31T06:50:39.271Z,-0.90
2022-12-31T06:53:41.085Z,-0.91
2022-12-31T06:56:42.815Z,-0.92
2022-12-31T06:59:44.704Z,-0.92
2022-12-31T07:03:01.865Z,-0.91
2022-12-31T07:06:16.736Z,-0.83
2022-12-31T07:09:38.057Z,-0.79
2022-12-31T07:13:11.671Z,-0.75
2022-12-31T07:16:41.251Z,-0.68
2022-12-31T07:20:16.739Z,-0.61
2022-12-31T07:23:18.715Z,-0.58
2022-12-31T07:26:57.771Z,-0.58
2022-12-31T07:30:02.772Z,-0.56
2022-12-31T07:33:08.466Z,-0.37
2022-12-31T07:36:37.272Z,-0.02
2022-12-31T07:39:58.780Z,0.08
2022-12-31T07:43:36.679Z,0.14
2022-12-31T07:46:53.195Z,0.16
2022-12-31T07:49:55.603Z,0.27
2022-12-31T07:52:57.548Z,0.37
2022-12-31T07:56:00.968Z,0.47
2022-12-31T07:59:08.389Z,0.58
2022-12-31T08:02:39.262Z,0.70
2022-12-31T08:05:50.744Z,0.80
2022-12-31T08:08:55.567Z,0.88
2022-12-31T08:11:59.553Z,1.01
2022-12-31T08:15:01.846Z,1.15
2022-12-31T08:18:03.945Z,1.32
2022-12-31T08:21:14.222Z,1.45
2022-12-31T08:24:40.304Z,1.58
2022-12-31T08:28:16.404Z,1.74
2022-12-31T08:31:20.727Z,1.87
2022-12-31T08:34:28.501Z,2.02
2022-12-31T08:37:40.292Z,2.26
2022-12-31T08:40:52.210Z,2.69
2022-12-31T08:43:59.749Z,3.21
2022-12-31T08:47:16.801Z,3.96
2022-12-31T08:50:19.739Z,4.78
2022-12-31T08:53:21.819Z,5.55
2022-12-31T08:56:30.011Z,6.21
2022-12-31T08:59:47.077Z,6.90
2022-12-31T09:03:00.656Z,7.50
2022-12-31T09:06:27.526Z,8.14
2022-12-31T09:09:44.639Z,9.13
2022-12-31T09:13:22.932Z,10.17
2022-12-31T09:16:36.714Z,11.23
2022-12-31T09:19:38.636Z,11.91
2022-12-31T09:22:40.663Z,11.86
2022-12-31T09:26:17.855Z,11.38
2022-12-31T09:29:42.003Z,10.82
2022-12-31T09:32:50.325Z,10.26
2022-12-31T09:35:57.100Z,9.82
2022-12-31T09:39:23.293Z,9.37
2022-12-31T09:42:57.457Z,9.03
2022-12-31T09:46:47.321Z,8.69
2022-12-31T09:50:00.953Z,8.48
2022-12-31T09:53:30.093Z,8.50
2022-12-31T09:57:05.874Z,8.90
2022-12-31T10:00:39.508Z,9.28
2022-12-31T10:03:50.149Z,9.22
2022-12-31T10:07:10.905Z,9.14
2022-12-31T10:10:24.585Z,9.09
2022-12-31T10:13:55.541Z,9.13
2022-12-31T10:17:02.181Z,9.14
2022-12-31T10:20:41.601Z,9.20
2022-12-31T10:24:12.191Z,9.45
2022-12-31T10:27:16.862Z,10.30
2022-12-31T10:30:19.951Z,11.24
2022-12-31T10:33:45.118Z,11.97
2022-12-31T10:36:55.907Z,12.34
2022-12-31T10:40:12.059Z,12.52
2022-12-31T10:43:41.751Z,12.20
2022-12-31T10:47:14.766Z,11.98
2022-12-31T10:50:35.342Z,11.82
2022-12-31T10:53:55.952Z,11.82
2022-12-31T10:57:23.121Z,11.84
2022-12-31T11:00:29.827Z,11.82
2022-12-31T11:03:43.854Z,11.87
2022-12-31T11:07:03.213Z,11.95
2022-12-31T11:10:34.261Z,12.07
2022-12-31T11:14:06.994Z,12.03
2022-12-31T11:17:20.688Z,11.99
2022-12-31T11:20:47.711Z,11.98
2022-12-31T11:24:10.252Z,11.94
2022-12-31T11:27:49.462Z,11.86
2022-12-31T11:31:29.043Z,11.73
2022-12-31T11:35:12.317Z,11.54
2022-12-31T11:38:30.786Z,11.51
2022-12-31T11:41:42.403Z,11.52
2022-12-31T11:44:55.567Z,11.50
2022-12-31T11:48:36.263Z,11.55
2022-12-31T11:51:55.910Z,11.57
2022-12-31T11:55:27.732Z,11.67
2022-12-31T11:58:29.834Z,11.92
2022-12-31T12:01:39.669Z,12.01
2022-12-31T12:04:41.647Z,12.07
2022-12-31T12:07:43.378Z,12.10
2022-12-31T12:10:51.223Z,12.19
2022-12-31T12:13:52.916Z,12.21
2022-12-31T12:16:59.141Z,12.23
2022-12-31T12:20:18.856Z,12.22
2022-12-31T12:23:24.624Z,12.27
2022-12-31T12:26:39.797Z,12.33
2022-12-31T12:29:41.367Z,12.38
2022-12-31T12:33:00.529Z,12.33
2022-12-31T12:36:14.639Z,12.37
2022-12-31T12:39:22.342Z,12.42
2022-12-31T12:42:24.226Z,12.41
2022-12-31T12:45:51.632Z,12.46
2022-12-31T12:48:56.357Z,12.57
2022-12-31T12:52:24.213Z,12.67
2022-12-31T12:55:44.377Z,12.66
2022-12-31T12:58:55.424Z,12.58
2022-12-31T13:02:35.927Z,12.58
2022-12-31T13:05:56.250Z,12.67
2022-12-31T13:09:19.912Z,12.60
2022-12-31T13:13:05.303Z,12.46
2022-12-31T13:16:22.402Z,12.46
2022-12-31T13:19:39.045Z,12.38
2022-12-31T13:22:48.275Z,12.23
2022-12-31T13:26:09.195Z,12.15
2022-12-31T13:29:21.162Z,12.16
2022-12-31T13:32:31.300Z,12.05
2022-12-31T13:35:38.392Z,11.97
2022-12-31T13:38:52.082Z,11.80
2022-12-31T13:42:01.439Z,11.65
2022-12-31T13:45:20.902Z,11.48
2022-12-31T13:48:28.063Z,11.40
2022-12-31T13:51:55.310Z,11.40
2022-12-31T13:55:14.263Z,11.38
2022-12-31T13:58:40.163Z,11.42
2022-12-31T14:01:48.989Z,11.38
2022-12-31T14:04:55.031Z,11.27
2022-12-31T14:08:01.965Z,11.17
2022-12-31T14:11:18.557Z,11.10
2022-12-31T14:14:54.437Z,10.94
2022-12-31T14:18:22.845Z,10.78
2022-12-31T14:21:32.988Z,10.60
2022-12-31T14:24:49.287Z,10.47
2022-12-31T14:27:52.501Z,10.47
2022-12-31T14:31:00.583Z,10.54
2022-12-31T14:34:20.963Z,10.58
2022-12-31T14:37:50.382Z,10.60
2022-12-31T14:41:07.477Z,10.63
2022-12-31T14:44:27.409Z,10.70
2022-12-31T14:47:52.219Z,10.80
2022-12-31T14:50:54.052Z,10.86
2022-12-31T14:53:57.301Z,10.89
2022-12-31T14:57:24.317Z,10.90
2022-12-31T15:00:30.541Z,10.77
2022-12-31T15:03:32.159Z,10.71
2022-12-31T15:07:03.068Z,10.68
2022-12-31T15:10:07.786Z,10.57
2022-12-31T15:13:37.655Z,10.47
2022-12-31T15:16:43.797Z,10.48
2022-12-31T15:20:30.946Z,10.46
2022-12-31T15:23:37.392Z,10.42
2022-12-31T15:26:51.402Z,10.33
2022-12-31T15:29:53.147Z,10.16
2022-12-31T15:32:56.696Z,10.01
2022-12-31T15:36:20.622Z,9.96
2022-12-31T15:39:42.188Z,9.90
2022-12-31T15:42:50.685Z,9.85
2022-12-31T15:45:53.902Z,9.88
2022-12-31T15:49:16.088Z,9.93
2022-12-31T15:52:25.541Z,9.95
2022-12-31T15:55:31.975Z,10.00
2022-12-31T15:58:35.571Z,10.00
2022-12-31T16:01:40.742Z,9.96
2022-12-31T16:04:42.614Z,9.95
2022-12-31T16:07:44.467Z,9.92
2022-12-31T16:10:46.609Z,9.85
2022-12-31T16:13:51.450Z,9.82
2022-12-31T16:17:00.760Z,9.92
2022-12-31T16:20:24.226Z,9.98
2022-12-31T16:23:27.024Z,9.97
2022-12-31T16:26:32.815Z,9.87
2022-12-31T16:29:36.523Z,9.74
2022-12-31T16:32:39.276Z,9.60
2022-12-31T16:35:41.137Z,9.59
2022-12-31T16:38:42.747Z,9.59
2022-12-31T16:41:44.356Z,9.58
2022-12-31T16:44:47.751Z,9.63
2022-12-31T16:47:49.528Z,9.74
2022-12-31T16:50:53.631Z,9.74
2022-12-31T16:53:55.306Z,9.86
2022-12-31T16:56:59.047Z,9.93
2022-12-31T17:00:03.881Z,9.99
2022-12-31T17:03:08.535Z,10.06
2022-12-31T17:06:10.204Z,10.18
2022-12-31T17:09:14.715Z,10.25
2022-12-31T17:12:16.839Z,10.23
2022-12-31T17:15:24.412Z,10.26
2022-12-31T17:18:30.596Z,10.21
2022-12-31T17:21:32.961Z,10.23
2022-12-31T17:24:35.486Z,10.25
2022-12-31T17:27:37.113Z,10.32
2022-12-31T17:30:39.518Z,10.41
2022-12-31T17:33:41.272Z,10.41
2022-12-31T17:36:58.307Z,10.33
2022-12-31T17:40:24.510Z,10.38
2022-12-31T17:43:22.654Z,10.47
2022-12-31T17:46:25.081Z,10.51
2022-12-31T17:49:30.257Z,10.44
2022-12-31T17:52:31.870Z,10.36
2022-12-31T17:55:33.508Z,10.28
2022-12-31T17:58:37.712Z,10.33
2022-12-31T18:01:39.354Z,10.41
2022-12-31T18:04:41.020Z,10.43
2022-12-31T18:07:42.550Z,10.40
2022-12-31T18:10:44.751Z,10.36
2022-12-31T18:13:47.034Z,10.37
2022-12-31T18:16:48.572Z,10.40
2022-12-31T18:20:06.503Z,10.37
2022-12-31T18:23:24.034Z,10.37
2022-12-31T18:26:26.232Z,10.35
2022-12-31T18:29:27.806Z,10.34
2022-12-31T18:32:30.935Z,10.33
2022-12-31T18:36:07.247Z,10.35
2022-12-31T18:38:54.798Z,10.37
2022-12-31T18:41:56.377Z,10.39
2022-12-31T18:44:58.273Z,10.49
2022-12-31T18:47:59.926Z,10.56
2022-12-31T18:51:01.521Z,10.58
2022-12-31T18:54:04.217Z,10.64
2022-12-31T18:57:06.074Z,10.69
2022-12-31T19:00:08.454Z,10.72
2022-12-31T19:03:18.855Z,10.68
2022-12-31T19:06:20.568Z,10.61
2022-12-31T19:09:44.745Z,10.58
2022-12-31T19:12:44.735Z,10.53
2022-12-31T19:15:51.830Z,10.59
2022-12-31T19:18:53.481Z,10.59
2022-12-31T19:21:55.524Z,10.60
2022-12-31T19:24:57.231Z,10.56
2022-12-31T19:27:58.941Z,10.48
2022-12-31T19:31:00.502Z,10.45
2022-12-31T19:34:02.403Z,10.40
2022-12-31T19:37:04.083Z,10.33
2022-12-31T19:40:06.476Z,10.33
2022-12-31T19:43:12.426Z,10.35
2022-12-31T19:46:16.059Z,10.23
2022-12-31T19:49:17.771Z,10.13
2022-12-31T19:52:19.594Z,10.03
2022-12-31T19:55:22.072Z,9.92
2022-12-31T19:58:25.292Z,9.91
2022-12-31T20:01:27.035Z,9.95
2022-12-31T20:04:28.821Z,9.86
2022-12-31T20:07:30.453Z,9.75
2022-12-31T20:10:32.265Z,9.72
2022-12-31T20:13:35.278Z,9.66
2022-12-31T20:16:36.947Z,9.62
2022-12-31T20:19:39.042Z,9.62
2022-12-31T20:22:40.832Z,9.62
2022-12-31T20:25:42.646Z,9.63
2022-12-31T20:28:44.528Z,9.58
2022-12-31T20:31:46.741Z,9.48
2022-12-31T20:34:48.421Z,9.44
2022-12-31T20:37:49.922Z,9.44
2022-12-31T20:40:51.344Z,9.47
2022-12-31T20:47:15.118Z,9.53
2022-12-31T20:50:16.893Z,9.61
2022-12-31T20:53:18.434Z,9.81
2022-12-31T20:56:22.643Z,9.99
2022-12-31T20:59:24.254Z,10.03
2022-12-31T21:02:40.346Z,10.06
2022-12-31T21:05:48.192Z,10.08
2022-12-31T21:08:50.049Z,10.24
2022-12-31T21:11:51.613Z,10.45
2022-12-31T21:14:53.189Z,10.61
2022-12-31T21:17:54.839Z,10.76
2022-12-31T21:20:56.526Z,10.80
2022-12-31T21:23:58.171Z,10.83
2022-12-31T21:26:59.817Z,10.80
2022-12-31T21:30:18.109Z,10.81
2022-12-31T21:33:20.525Z,10.72
2022-12-31T21:36:22.340Z,10.67
2022-12-31T21:39:24.168Z,10.59
2022-12-31T21:42:25.867Z,10.56
2022-12-31T21:45:27.512Z,10.61
2022-12-31T21:48:29.343Z,10.44
2022-12-31T21:51:31.118Z,10.22
2022-12-31T21:54:33.502Z,10.21
2022-12-31T21:57:59.082Z,10.28
2022-12-31T22:00:58.751Z,10.30
2022-12-31T22:04:00.427Z,10.20
2022-12-31T22:07:02.139Z,10.18
2022-12-31T22:10:03.912Z,10.37
2022-12-31T22:13:05.775Z,10.56
2022-12-31T22:16:08.048Z,10.57
2022-12-31T22:19:09.824Z,10.71
2022-12-31T22:22:11.388Z,10.59
2022-12-31T22:25:12.961Z,10.42
2022-12-31T22:31:36.166Z,10.25
2022-12-31T22:34:37.750Z,10.19
2022-12-31T22:37:56.775Z,10.22
2022-12-31T22:41:17.274Z,10.25
2022-12-31T22:44:18.834Z,10.33
2022-12-31T22:47:21.044Z,10.37
2022-12-31T22:50:22.600Z,10.38
2022-12-31T22:53:24.194Z,10.44
2022-12-31T22:56:25.927Z,10.63
2022-12-31T22:59:27.585Z,10.66
2022-12-31T23:02:29.324Z,10.61
2022-12-31T23:05:32.379Z,10.59
2022-12-31T23:08:34.116Z,10.57
2022-12-31T23:11:37.479Z,10.70
2022-12-31T23:14:39.115Z,10.76
2022-12-31T23:17:40.825Z,10.79
2022-12-31T23:20:42.453Z,10.81
2022-12-31T23:23:44.269Z,10.96
2022-12-31T23:26:45.981Z,11.11
2022-12-31T23:29:47.935Z,11.16
2022-12-31T23:32:49.757Z,11.19
2022-12-31T23:36:02.216Z,11.20
2022-12-31T23:39:04.080Z,11.23
2022-12-31T23:42:05.828Z,11.21
2022-12-31T23:45:07.654Z,11.19
2022-12-31T23:48:09.310Z,11.14
2022-12-31T23:51:11.102Z,11.10
2022-12-31T23:54:12.850Z,11.04
2022-12-31T23:57:14.610Z,11.01
